sensor_id;sensor_type;location;lat;lon;timestamp;P1;durP1;ratioP1;P2;durP2;ratioP2
63394;SDS011;49531;-34.520;150.798;2023-06-22T00:01:19;5.32;;;2.53;;
63394;SDS011;49531;-34.520;150.798;2023-06-22T00:03:48;4.05;;;2.70;;
63394;SDS011;49531;-34.520;150.798;2023-06-22T00:06:16;6.15;;;2.70;;
63394;SDS011;49531;-34.520;150.798;2023-06-22T00:08:43;6.60;;;2.53;;
63394;SDS011;49531;-34.520;150.798;2023-06-22T00:11:10;5.95;;;2.40;;
63394;SDS011;49531;-34.520;150.798;2023-06-22T00:13:37;6.20;;;2.10;;
63394;SDS011;49531;-34.520;150.798;2023-06-22T00:16:05;3.20;;;1.92;;
63394;SDS011;49531;-34.520;150.798;2023-06-22T00:18:32;5.97;;;1.60;;
63394;SDS011;49531;-34.520;150.798;2023-06-22T00:20:59;4.18;;;1.60;;
63394;SDS011;49531;-34.520;150.798;2023-06-22T00:23:27;3.20;;;1.67;;
63394;SDS011;49531;-34.520;150.798;2023-06-22T00:25:59;3.13;;;1.40;;
63394;SDS011;49531;-34.520;150.798;2023-06-22T00:28:26;4.18;;;1.40;;
63394;SDS011;49531;-34.520;150.798;2023-06-22T00:30:54;2.20;;;1.10;;
63394;SDS011;49531;-34.520;150.798;2023-06-22T00:33:21;5.28;;;1.40;;
63394;SDS011;49531;-34.520;150.798;2023-06-22T00:35:48;3.33;;;1.27;;
63394;SDS011;49531;-34.520;150.798;2023-06-22T00:38:18;2.72;;;1.30;;
63394;SDS011;49531;-34.520;150.798;2023-06-22T00:40:45;15.68;;;1.50;;
63394;SDS011;49531;-34.520;150.798;2023-06-22T00:43:12;15.98;;;1.60;;
63394;SDS011;49531;-34.520;150.798;2023-06-22T00:45:39;8.60;;;1.27;;
63394;SDS011;49531;-34.520;150.798;2023-06-22T00:48:06;6.93;;;1.23;;
63394;SDS011;49531;-34.520;150.798;2023-06-22T00:50:34;5.55;;;1.30;;
63394;SDS011;49531;-34.520;150.798;2023-06-22T00:53:03;7.20;;;1.40;;
63394;SDS011;49531;-34.520;150.798;2023-06-22T00:55:35;4.85;;;1.23;;
63394;SDS011;49531;-34.520;150.798;2023-06-22T00:58:05;5.90;;;1.30;;
63394;SDS011;49531;-34.520;150.798;2023-06-22T01:00:36;3.08;;;1.17;;
63394;SDS011;49531;-34.520;150.798;2023-06-22T01:03:03;2.42;;;1.30;;
63394;SDS011;49531;-34.520;150.798;2023-06-22T01:05:34;2.65;;;1.10;;
63394;SDS011;49531;-34.520;150.798;2023-06-22T01:08:08;2.35;;;1.10;;
63394;SDS011;49531;-34.520;150.798;2023-06-22T01:10:55;2.08;;;1.08;;
63394;SDS011;49531;-34.520;150.798;2023-06-22T01:13:41;6.45;;;1.10;;
63394;SDS011;49531;-34.520;150.798;2023-06-22T01:16:23;2.35;;;1.13;;
63394;SDS011;49531;-34.520;150.798;2023-06-22T01:21:22;1.20;;;0.85;;
63394;SDS011;49531;-34.520;150.798;2023-06-22T01:23:53;2.38;;;0.90;;
63394;SDS011;49531;-34.520;150.798;2023-06-22T01:26:38;2.00;;;0.90;;
63394;SDS011;49531;-34.520;150.798;2023-06-22T01:29:18;3.47;;;0.98;;
63394;SDS011;49531;-34.520;150.798;2023-06-22T01:31:47;3.63;;;1.00;;
63394;SDS011;49531;-34.520;150.798;2023-06-22T01:34:16;1.67;;;0.90;;
63394;SDS011;49531;-34.520;150.798;2023-06-22T01:36:43;1.17;;;0.80;;
63394;SDS011;49531;-34.520;150.798;2023-06-22T01:39:12;2.40;;;0.93;;
63394;SDS011;49531;-34.520;150.798;2023-06-22T01:41:40;5.20;;;1.10;;
63394;SDS011;49531;-34.520;150.798;2023-06-22T01:44:08;1.55;;;1.00;;
63394;SDS011;49531;-34.520;150.798;2023-06-22T01:46:36;4.32;;;0.90;;
63394;SDS011;49531;-34.520;150.798;2023-06-22T01:49:04;2.30;;;0.90;;
63394;SDS011;49531;-34.520;150.798;2023-06-22T01:51:32;2.30;;;1.08;;
63394;SDS011;49531;-34.520;150.798;2023-06-22T01:53:59;4.03;;;1.20;;
63394;SDS011;49531;-34.520;150.798;2023-06-22T01:56:28;3.22;;;1.15;;
63394;SDS011;49531;-34.520;150.798;2023-06-22T01:59:00;1.90;;;0.80;;
63394;SDS011;49531;-34.520;150.798;2023-06-22T02:01:36;1.02;;;0.80;;
63394;SDS011;49531;-34.520;150.798;2023-06-22T02:04:12;1.33;;;1.00;;
63394;SDS011;49531;-34.520;150.798;2023-06-22T02:06:46;1.00;;;0.90;;
63394;SDS011;49531;-34.520;150.798;2023-06-22T02:09:16;1.63;;;1.10;;
63394;SDS011;49531;-34.520;150.798;2023-06-22T02:11:46;2.60;;;1.00;;
63394;SDS011;49531;-34.520;150.798;2023-06-22T02:14:19;3.00;;;1.08;;
63394;SDS011;49531;-34.520;150.798;2023-06-22T02:16:46;1.58;;;1.13;;
63394;SDS011;49531;-34.520;150.798;2023-06-22T02:19:14;1.75;;;1.00;;
63394;SDS011;49531;-34.520;150.798;2023-06-22T02:21:44;3.08;;;1.10;;
63394;SDS011;49531;-34.520;150.798;2023-06-22T02:24:11;2.20;;;1.05;;
63394;SDS011;49531;-34.520;150.798;2023-06-22T02:26:39;1.77;;;1.00;;
63394;SDS011;49531;-34.520;150.798;2023-06-22T02:29:08;1.33;;;0.90;;
63394;SDS011;49531;-34.520;150.798;2023-06-22T02:31:35;3.92;;;1.10;;
63394;SDS011;49531;-34.520;150.798;2023-06-22T02:34:02;2.67;;;1.00;;
63394;SDS011;49531;-34.520;150.798;2023-06-22T02:36:29;1.98;;;1.00;;
63394;SDS011;49531;-34.520;150.798;2023-06-22T02:38:56;1.90;;;1.00;;
63394;SDS011;49531;-34.520;150.798;2023-06-22T02:41:27;2.80;;;1.10;;
63394;SDS011;49531;-34.520;150.798;2023-06-22T02:43:54;3.20;;;1.10;;
63394;SDS011;49531;-34.520;150.798;2023-06-22T02:46:22;2.88;;;1.20;;
63394;SDS011;49531;-34.520;150.798;2023-06-22T02:48:49;1.30;;;1.00;;
63394;SDS011;49531;-34.520;150.798;2023-06-22T02:51:16;1.27;;;0.98;;
63394;SDS011;49531;-34.520;150.798;2023-06-22T02:53:43;3.00;;;1.08;;
63394;SDS011;49531;-34.520;150.798;2023-06-22T02:56:11;2.88;;;1.30;;
63394;SDS011;49531;-34.520;150.798;2023-06-22T02:58:39;1.75;;;1.10;;
63394;SDS011;49531;-34.520;150.798;2023-06-22T03:01:06;5.32;;;1.20;;
63394;SDS011;49531;-34.520;150.798;2023-06-22T03:03:33;2.35;;;1.15;;
63394;SDS011;49531;-34.520;150.798;2023-06-22T03:06:00;2.35;;;1.10;;
63394;SDS011;49531;-34.520;150.798;2023-06-22T03:08:28;1.63;;;1.10;;
63394;SDS011;49531;-34.520;150.798;2023-06-22T03:10:55;4.00;;;1.25;;
63394;SDS011;49531;-34.520;150.798;2023-06-22T03:13:23;2.38;;;1.08;;
63394;SDS011;49531;-34.520;150.798;2023-06-22T03:15:50;2.08;;;1.13;;
63394;SDS011;49531;-34.520;150.798;2023-06-22T03:18:18;1.75;;;1.08;;
63394;SDS011;49531;-34.520;150.798;2023-06-22T03:20:47;1.70;;;0.93;;
63394;SDS011;49531;-34.520;150.798;2023-06-22T03:23:15;3.53;;;1.30;;
63394;SDS011;49531;-34.520;150.798;2023-06-22T03:25:42;2.20;;;1.20;;
63394;SDS011;49531;-34.520;150.798;2023-06-22T03:28:10;1.42;;;0.98;;
63394;SDS011;49531;-34.520;150.798;2023-06-22T03:30:37;3.72;;;1.20;;
63394;SDS011;49531;-34.520;150.798;2023-06-22T03:33:05;1.63;;;1.02;;
63394;SDS011;49531;-34.520;150.798;2023-06-22T03:35:32;2.55;;;1.00;;
63394;SDS011;49531;-34.520;150.798;2023-06-22T03:37:59;2.88;;;0.90;;
63394;SDS011;49531;-34.520;150.798;2023-06-22T03:40:26;1.20;;;0.80;;
63394;SDS011;49531;-34.520;150.798;2023-06-22T03:42:53;1.85;;;0.80;;
63394;SDS011;49531;-34.520;150.798;2023-06-22T03:45:21;0.90;;;0.90;;
63394;SDS011;49531;-34.520;150.798;2023-06-22T03:47:48;2.03;;;0.95;;
63394;SDS011;49531;-34.520;150.798;2023-06-22T03:50:16;1.00;;;0.90;;
63394;SDS011;49531;-34.520;150.798;2023-06-22T03:52:46;2.15;;;1.08;;
63394;SDS011;49531;-34.520;150.798;2023-06-22T03:55:13;3.05;;;0.85;;
63394;SDS011;49531;-34.520;150.798;2023-06-22T03:57:40;1.77;;;0.88;;
63394;SDS011;49531;-34.520;150.798;2023-06-22T04:00:08;2.15;;;1.00;;
63394;SDS011;49531;-34.520;150.798;2023-06-22T04:02:36;3.53;;;0.82;;
63394;SDS011;49531;-34.520;150.798;2023-06-22T04:05:03;1.00;;;0.90;;
63394;SDS011;49531;-34.520;150.798;2023-06-22T04:07:30;2.10;;;1.08;;
63394;SDS011;49531;-34.520;150.798;2023-06-22T04:09:57;3.28;;;0.98;;
63394;SDS011;49531;-34.520;150.798;2023-06-22T04:12:24;3.28;;;1.10;;
63394;SDS011;49531;-34.520;150.798;2023-06-22T04:14:52;2.60;;;1.10;;
63394;SDS011;49531;-34.520;150.798;2023-06-22T04:17:19;2.25;;;1.17;;
63394;SDS011;49531;-34.520;150.798;2023-06-22T04:19:46;2.08;;;1.00;;
63394;SDS011;49531;-34.520;150.798;2023-06-22T04:22:13;2.40;;;1.10;;
63394;SDS011;49531;-34.520;150.798;2023-06-22T04:24:40;3.67;;;1.30;;
63394;SDS011;49531;-34.520;150.798;2023-06-22T04:27:07;2.58;;;1.20;;
63394;SDS011;49531;-34.520;150.798;2023-06-22T04:29:34;1.80;;;1.13;;
63394;SDS011;49531;-34.520;150.798;2023-06-22T04:32:02;1.73;;;1.10;;
63394;SDS011;49531;-34.520;150.798;2023-06-22T04:34:30;2.38;;;1.10;;
63394;SDS011;49531;-34.520;150.798;2023-06-22T04:36:58;2.58;;;1.20;;
63394;SDS011;49531;-34.520;150.798;2023-06-22T04:39:25;1.40;;;0.93;;
63394;SDS011;49531;-34.520;150.798;2023-06-22T04:41:52;2.00;;;1.10;;
63394;SDS011;49531;-34.520;150.798;2023-06-22T04:44:25;4.70;;;1.20;;
63394;SDS011;49531;-34.520;150.798;2023-06-22T04:46:54;2.10;;;1.23;;
63394;SDS011;49531;-34.520;150.798;2023-06-22T04:49:29;2.17;;;1.10;;
63394;SDS011;49531;-34.520;150.798;2023-06-22T04:51:58;3.83;;;1.20;;
63394;SDS011;49531;-34.520;150.798;2023-06-22T04:54:26;4.60;;;1.10;;
63394;SDS011;49531;-34.520;150.798;2023-06-22T04:56:54;4.07;;;1.30;;
63394;SDS011;49531;-34.520;150.798;2023-06-22T04:59:22;3.65;;;1.60;;
63394;SDS011;49531;-34.520;150.798;2023-06-22T05:01:54;3.55;;;1.08;;
63394;SDS011;49531;-34.520;150.798;2023-06-22T05:04:22;3.90;;;1.20;;
63394;SDS011;49531;-34.520;150.798;2023-06-22T05:06:50;3.67;;;1.30;;
63394;SDS011;49531;-34.520;150.798;2023-06-22T05:09:18;1.67;;;1.10;;
63394;SDS011;49531;-34.520;150.798;2023-06-22T05:11:45;3.38;;;1.23;;
63394;SDS011;49531;-34.520;150.798;2023-06-22T05:14:13;3.55;;;1.05;;
63394;SDS011;49531;-34.520;150.798;2023-06-22T05:16:41;1.80;;;1.20;;
63394;SDS011;49531;-34.520;150.798;2023-06-22T05:19:08;2.47;;;1.17;;
63394;SDS011;49531;-34.520;150.798;2023-06-22T05:21:36;1.95;;;1.00;;
63394;SDS011;49531;-34.520;150.798;2023-06-22T05:24:03;1.83;;;1.10;;
63394;SDS011;49531;-34.520;150.798;2023-06-22T05:26:31;2.35;;;1.20;;
63394;SDS011;49531;-34.520;150.798;2023-06-22T05:29:00;2.25;;;1.00;;
63394;SDS011;49531;-34.520;150.798;2023-06-22T05:31:29;2.03;;;1.20;;
63394;SDS011;49531;-34.520;150.798;2023-06-22T05:33:56;1.85;;;1.02;;
63394;SDS011;49531;-34.520;150.798;2023-06-22T05:36:23;2.00;;;1.00;;
63394;SDS011;49531;-34.520;150.798;2023-06-22T05:38:51;1.48;;;1.00;;
63394;SDS011;49531;-34.520;150.798;2023-06-22T05:41:18;2.22;;;1.17;;
63394;SDS011;49531;-34.520;150.798;2023-06-22T05:43:46;2.10;;;1.17;;
63394;SDS011;49531;-34.520;150.798;2023-06-22T05:46:13;2.60;;;1.08;;
63394;SDS011;49531;-34.520;150.798;2023-06-22T05:48:40;2.70;;;1.08;;
63394;SDS011;49531;-34.520;150.798;2023-06-22T05:51:07;1.63;;;1.02;;
63394;SDS011;49531;-34.520;150.798;2023-06-22T05:53:34;3.10;;;1.00;;
63394;SDS011;49531;-34.520;150.798;2023-06-22T05:56:01;2.55;;;1.20;;
63394;SDS011;49531;-34.520;150.798;2023-06-22T05:58:29;3.08;;;1.27;;
63394;SDS011;49531;-34.520;150.798;2023-06-22T06:00:56;5.32;;;1.05;;
63394;SDS011;49531;-34.520;150.798;2023-06-22T06:03:24;2.90;;;1.40;;
63394;SDS011;49531;-34.520;150.798;2023-06-22T06:05:54;1.75;;;1.10;;
63394;SDS011;49531;-34.520;150.798;2023-06-22T06:08:21;1.77;;;1.20;;
63394;SDS011;49531;-34.520;150.798;2023-06-22T06:10:48;3.72;;;1.30;;
63394;SDS011;49531;-34.520;150.798;2023-06-22T06:13:15;1.10;;;0.90;;
63394;SDS011;49531;-34.520;150.798;2023-06-22T06:15:42;1.98;;;1.05;;
63394;SDS011;49531;-34.520;150.798;2023-06-22T06:18:10;2.35;;;1.15;;
63394;SDS011;49531;-34.520;150.798;2023-06-22T06:20:37;2.75;;;1.25;;
63394;SDS011;49531;-34.520;150.798;2023-06-22T06:23:04;2.40;;;1.30;;
63394;SDS011;49531;-34.520;150.798;2023-06-22T06:25:31;1.40;;;1.30;;
63394;SDS011;49531;-34.520;150.798;2023-06-22T06:27:58;3.42;;;1.20;;
63394;SDS011;49531;-34.520;150.798;2023-06-22T06:30:25;2.85;;;1.40;;
63394;SDS011;49531;-34.520;150.798;2023-06-22T06:32:52;4.25;;;1.45;;
63394;SDS011;49531;-34.520;150.798;2023-06-22T06:35:20;3.70;;;1.40;;
63394;SDS011;49531;-34.520;150.798;2023-06-22T06:37:48;3.50;;;1.40;;
63394;SDS011;49531;-34.520;150.798;2023-06-22T06:40:17;3.38;;;1.45;;
63394;SDS011;49531;-34.520;150.798;2023-06-22T06:42:46;3.28;;;1.40;;
63394;SDS011;49531;-34.520;150.798;2023-06-22T06:45:16;5.57;;;1.45;;
63394;SDS011;49531;-34.520;150.798;2023-06-22T06:47:45;3.70;;;1.50;;
63394;SDS011;49531;-34.520;150.798;2023-06-22T06:50:13;2.40;;;1.40;;
63394;SDS011;49531;-34.520;150.798;2023-06-22T06:52:40;2.10;;;1.50;;
63394;SDS011;49531;-34.520;150.798;2023-06-22T06:55:08;2.63;;;1.60;;
63394;SDS011;49531;-34.520;150.798;2023-06-22T06:57:37;3.58;;;1.40;;
63394;SDS011;49531;-34.520;150.798;2023-06-22T07:00:06;2.60;;;1.60;;
63394;SDS011;49531;-34.520;150.798;2023-06-22T07:02:38;3.15;;;1.60;;
63394;SDS011;49531;-34.520;150.798;2023-06-22T07:05:07;2.97;;;1.40;;
63394;SDS011;49531;-34.520;150.798;2023-06-22T07:07:35;2.42;;;1.63;;
63394;SDS011;49531;-34.520;150.798;2023-06-22T07:10:02;3.88;;;1.58;;
63394;SDS011;49531;-34.520;150.798;2023-06-22T07:12:31;3.78;;;1.45;;
63394;SDS011;49531;-34.520;150.798;2023-06-22T07:15:03;3.03;;;1.50;;
63394;SDS011;49531;-34.520;150.798;2023-06-22T07:17:33;2.92;;;1.60;;
63394;SDS011;49531;-34.520;150.798;2023-06-22T07:20:02;1.65;;;1.40;;
63394;SDS011;49531;-34.520;150.798;2023-06-22T07:22:34;1.53;;;1.40;;
63394;SDS011;49531;-34.520;150.798;2023-06-22T07:25:01;3.53;;;1.45;;
63394;SDS011;49531;-34.520;150.798;2023-06-22T07:27:36;3.67;;;1.50;;
63394;SDS011;49531;-34.520;150.798;2023-06-22T07:30:08;3.20;;;1.60;;
63394;SDS011;49531;-34.520;150.798;2023-06-22T07:32:36;1.83;;;1.38;;
63394;SDS011;49531;-34.520;150.798;2023-06-22T07:35:03;2.33;;;1.50;;
63394;SDS011;49531;-34.520;150.798;2023-06-22T07:37:32;2.72;;;1.38;;
63394;SDS011;49531;-34.520;150.798;2023-06-22T07:40:00;2.20;;;1.70;;
63394;SDS011;49531;-34.520;150.798;2023-06-22T07:42:31;2.45;;;1.52;;
63394;SDS011;49531;-34.520;150.798;2023-06-22T07:44:58;3.25;;;1.40;;
63394;SDS011;49531;-34.520;150.798;2023-06-22T07:47:27;2.40;;;1.50;;
63394;SDS011;49531;-34.520;150.798;2023-06-22T07:49:55;2.25;;;1.40;;
63394;SDS011;49531;-34.520;150.798;2023-06-22T07:52:27;3.75;;;1.50;;
63394;SDS011;49531;-34.520;150.798;2023-06-22T07:54:54;1.92;;;1.40;;
63394;SDS011;49531;-34.520;150.798;2023-06-22T07:57:22;3.03;;;1.50;;
63394;SDS011;49531;-34.520;150.798;2023-06-22T07:59:49;2.30;;;1.30;;
63394;SDS011;49531;-34.520;150.798;2023-06-22T08:02:16;1.65;;;1.40;;
63394;SDS011;49531;-34.520;150.798;2023-06-22T08:04:43;1.85;;;1.33;;
63394;SDS011;49531;-34.520;150.798;2023-06-22T08:07:12;4.57;;;1.98;;
63394;SDS011;49531;-34.520;150.798;2023-06-22T08:09:39;7.70;;;2.25;;
63394;SDS011;49531;-34.520;150.798;2023-06-22T08:12:14;9.02;;;2.75;;
63394;SDS011;49531;-34.520;150.798;2023-06-22T08:14:42;8.55;;;2.75;;
63394;SDS011;49531;-34.520;150.798;2023-06-22T08:17:11;6.65;;;2.72;;
63394;SDS011;49531;-34.520;150.798;2023-06-22T08:19:39;7.63;;;2.40;;
63394;SDS011;49531;-34.520;150.798;2023-06-22T08:22:07;3.95;;;2.53;;
63394;SDS011;49531;-34.520;150.798;2023-06-22T08:24:34;7.13;;;2.40;;
63394;SDS011;49531;-34.520;150.798;2023-06-22T08:27:01;5.85;;;2.47;;
63394;SDS011;49531;-34.520;150.798;2023-06-22T08:29:28;5.25;;;2.65;;
63394;SDS011;49531;-34.520;150.798;2023-06-22T08:31:55;5.18;;;2.70;;
63394;SDS011;49531;-34.520;150.798;2023-06-22T08:34:23;4.28;;;2.80;;
63394;SDS011;49531;-34.520;150.798;2023-06-22T08:36:53;5.28;;;2.95;;
63394;SDS011;49531;-34.520;150.798;2023-06-22T08:39:21;5.20;;;2.90;;
63394;SDS011;49531;-34.520;150.798;2023-06-22T08:41:48;5.63;;;2.88;;
63394;SDS011;49531;-34.520;150.798;2023-06-22T08:44:17;3.60;;;2.90;;
63394;SDS011;49531;-34.520;150.798;2023-06-22T08:46:45;5.40;;;2.88;;
63394;SDS011;49531;-34.520;150.798;2023-06-22T08:49:12;5.43;;;3.05;;
63394;SDS011;49531;-34.520;150.798;2023-06-22T08:51:39;3.72;;;2.92;;
63394;SDS011;49531;-34.520;150.798;2023-06-22T08:54:07;4.97;;;3.08;;
63394;SDS011;49531;-34.520;150.798;2023-06-22T08:56:34;6.80;;;3.25;;
63394;SDS011;49531;-34.520;150.798;2023-06-22T08:59:01;7.25;;;3.53;;
63394;SDS011;49531;-34.520;150.798;2023-06-22T09:01:28;5.18;;;3.30;;
63394;SDS011;49531;-34.520;150.798;2023-06-22T09:03:55;6.25;;;3.40;;
63394;SDS011;49531;-34.520;150.798;2023-06-22T09:06:23;5.80;;;3.05;;
63394;SDS011;49531;-34.520;150.798;2023-06-22T09:08:51;6.53;;;3.08;;
63394;SDS011;49531;-34.520;150.798;2023-06-22T09:11:21;5.43;;;3.17;;
63394;SDS011;49531;-34.520;150.798;2023-06-22T09:13:48;4.43;;;2.45;;
63394;SDS011;49531;-34.520;150.798;2023-06-22T09:16:16;4.60;;;2.88;;
63394;SDS011;49531;-34.520;150.798;2023-06-22T09:18:46;3.33;;;2.45;;
63394;SDS011;49531;-34.520;150.798;2023-06-22T09:21:14;4.00;;;2.45;;
63394;SDS011;49531;-34.520;150.798;2023-06-22T09:23:41;3.35;;;2.47;;
63394;SDS011;49531;-34.520;150.798;2023-06-22T09:26:09;6.35;;;2.50;;
63394;SDS011;49531;-34.520;150.798;2023-06-22T09:28:36;3.80;;;2.35;;
63394;SDS011;49531;-34.520;150.798;2023-06-22T09:31:03;3.83;;;2.33;;
63394;SDS011;49531;-34.520;150.798;2023-06-22T09:33:30;5.03;;;2.40;;
63394;SDS011;49531;-34.520;150.798;2023-06-22T09:35:58;3.15;;;2.20;;
63394;SDS011;49531;-34.520;150.798;2023-06-22T09:38:25;5.57;;;2.30;;
63394;SDS011;49531;-34.520;150.798;2023-06-22T09:40:52;4.50;;;2.20;;
63394;SDS011;49531;-34.520;150.798;2023-06-22T09:43:19;3.20;;;2.10;;
63394;SDS011;49531;-34.520;150.798;2023-06-22T09:45:46;2.97;;;2.20;;
63394;SDS011;49531;-34.520;150.798;2023-06-22T09:48:13;5.35;;;2.40;;
63394;SDS011;49531;-34.520;150.798;2023-06-22T09:50:41;3.47;;;2.60;;
63394;SDS011;49531;-34.520;150.798;2023-06-22T09:53:08;3.67;;;2.40;;
63394;SDS011;49531;-34.520;150.798;2023-06-22T09:55:35;3.85;;;2.33;;
63394;SDS011;49531;-34.520;150.798;2023-06-22T09:58:02;3.58;;;2.13;;
63394;SDS011;49531;-34.520;150.798;2023-06-22T10:00:29;2.95;;;2.20;;
63394;SDS011;49531;-34.520;150.798;2023-06-22T10:02:57;4.32;;;2.00;;
63394;SDS011;49531;-34.520;150.798;2023-06-22T10:05:24;5.22;;;2.22;;
63394;SDS011;49531;-34.520;150.798;2023-06-22T10:07:51;2.92;;;2.20;;
63394;SDS011;49531;-34.520;150.798;2023-06-22T10:10:18;2.83;;;2.00;;
63394;SDS011;49531;-34.520;150.798;2023-06-22T10:12:47;4.43;;;2.22;;
63394;SDS011;49531;-34.520;150.798;2023-06-22T10:15:21;4.22;;;2.38;;
63394;SDS011;49531;-34.520;150.798;2023-06-22T10:17:48;3.53;;;2.15;;
63394;SDS011;49531;-34.520;150.798;2023-06-22T10:20:15;4.82;;;2.20;;
63394;SDS011;49531;-34.520;150.798;2023-06-22T10:22:44;4.28;;;2.17;;
63394;SDS011;49531;-34.520;150.798;2023-06-22T10:25:12;3.92;;;2.30;;
63394;SDS011;49531;-34.520;150.798;2023-06-22T10:27:39;2.58;;;2.10;;
63394;SDS011;49531;-34.520;150.798;2023-06-22T10:30:08;3.83;;;2.20;;
63394;SDS011;49531;-34.520;150.798;2023-06-22T10:32:38;5.15;;;2.45;;
63394;SDS011;49531;-34.520;150.798;2023-06-22T10:35:06;3.67;;;2.33;;
63394;SDS011;49531;-34.520;150.798;2023-06-22T10:37:33;3.20;;;2.17;;
63394;SDS011;49531;-34.520;150.798;2023-06-22T10:40:01;3.92;;;2.17;;
63394;SDS011;49531;-34.520;150.798;2023-06-22T10:42:29;3.20;;;2.13;;
63394;SDS011;49531;-34.520;150.798;2023-06-22T10:44:56;3.90;;;2.30;;
63394;SDS011;49531;-34.520;150.798;2023-06-22T10:47:23;3.10;;;2.17;;
63394;SDS011;49531;-34.520;150.798;2023-06-22T10:49:51;2.78;;;2.00;;
63394;SDS011;49531;-34.520;150.798;2023-06-22T10:52:18;3.63;;;2.20;;
63394;SDS011;49531;-34.520;150.798;2023-06-22T10:54:45;4.15;;;2.35;;
63394;SDS011;49531;-34.520;150.798;2023-06-22T10:57:12;3.42;;;2.10;;
63394;SDS011;49531;-34.520;150.798;2023-06-22T10:59:40;3.50;;;2.50;;
63394;SDS011;49531;-34.520;150.798;2023-06-22T11:02:07;3.15;;;2.10;;
63394;SDS011;49531;-34.520;150.798;2023-06-22T11:04:34;2.58;;;2.22;;
63394;SDS011;49531;-34.520;150.798;2023-06-22T11:07:02;4.07;;;2.10;;
63394;SDS011;49531;-34.520;150.798;2023-06-22T11:09:29;3.40;;;2.17;;
63394;SDS011;49531;-34.520;150.798;2023-06-22T11:11:56;3.88;;;2.53;;
63394;SDS011;49531;-34.520;150.798;2023-06-22T11:14:25;7.00;;;2.50;;
63394;SDS011;49531;-34.520;150.798;2023-06-22T11:16:52;2.92;;;2.20;;
63394;SDS011;49531;-34.520;150.798;2023-06-22T11:19:19;3.03;;;2.28;;
63394;SDS011;49531;-34.520;150.798;2023-06-22T11:21:46;4.05;;;2.20;;
63394;SDS011;49531;-34.520;150.798;2023-06-22T11:24:13;2.78;;;1.95;;
63394;SDS011;49531;-34.520;150.798;2023-06-22T11:26:41;4.40;;;2.10;;
63394;SDS011;49531;-34.520;150.798;2023-06-22T11:29:08;3.17;;;2.17;;
63394;SDS011;49531;-34.520;150.798;2023-06-22T11:31:36;3.38;;;2.60;;
63394;SDS011;49531;-34.520;150.798;2023-06-22T11:34:03;5.25;;;2.83;;
63394;SDS011;49531;-34.520;150.798;2023-06-22T11:36:30;3.50;;;2.80;;
63394;SDS011;49531;-34.520;150.798;2023-06-22T11:38:58;5.82;;;3.00;;
63394;SDS011;49531;-34.520;150.798;2023-06-22T11:41:25;4.85;;;3.28;;
63394;SDS011;49531;-34.520;150.798;2023-06-22T11:43:52;5.05;;;3.58;;
63394;SDS011;49531;-34.520;150.798;2023-06-22T11:46:20;7.60;;;3.58;;
63394;SDS011;49531;-34.520;150.798;2023-06-22T11:48:47;4.60;;;3.45;;
63394;SDS011;49531;-34.520;150.798;2023-06-22T11:51:14;5.45;;;3.67;;
63394;SDS011;49531;-34.520;150.798;2023-06-22T11:53:41;4.75;;;3.45;;
63394;SDS011;49531;-34.520;150.798;2023-06-22T11:56:08;7.57;;;3.90;;
63394;SDS011;49531;-34.520;150.798;2023-06-22T11:58:35;5.70;;;3.70;;
63394;SDS011;49531;-34.520;150.798;2023-06-22T12:01:02;6.32;;;3.72;;
63394;SDS011;49531;-34.520;150.798;2023-06-22T12:03:30;4.93;;;3.38;;
63394;SDS011;49531;-34.520;150.798;2023-06-22T12:05:57;5.95;;;3.10;;
63394;SDS011;49531;-34.520;150.798;2023-06-22T12:08:25;6.10;;;3.22;;
63394;SDS011;49531;-34.520;150.798;2023-06-22T12:10:52;6.65;;;3.38;;
63394;SDS011;49531;-34.520;150.798;2023-06-22T12:13:19;3.95;;;3.03;;
63394;SDS011;49531;-34.520;150.798;2023-06-22T12:15:47;4.82;;;3.10;;
63394;SDS011;49531;-34.520;150.798;2023-06-22T12:18:15;6.72;;;3.00;;
63394;SDS011;49531;-34.520;150.798;2023-06-22T12:20:42;5.18;;;3.20;;
63394;SDS011;49531;-34.520;150.798;2023-06-22T12:23:10;4.97;;;3.10;;
63394;SDS011;49531;-34.520;150.798;2023-06-22T12:25:37;5.35;;;3.00;;
63394;SDS011;49531;-34.520;150.798;2023-06-22T12:28:04;4.53;;;3.10;;
63394;SDS011;49531;-34.520;150.798;2023-06-22T12:30:33;3.20;;;2.70;;
63394;SDS011;49531;-34.520;150.798;2023-06-22T12:33:00;6.00;;;3.00;;
63394;SDS011;49531;-34.520;150.798;2023-06-22T12:35:27;4.63;;;2.60;;
63394;SDS011;49531;-34.520;150.798;2023-06-22T12:37:54;3.60;;;2.50;;
63394;SDS011;49531;-34.520;150.798;2023-06-22T12:40:21;2.95;;;2.42;;
63394;SDS011;49531;-34.520;150.798;2023-06-22T12:42:49;3.35;;;2.28;;
63394;SDS011;49531;-34.520;150.798;2023-06-22T12:45:16;3.30;;;2.28;;
63394;SDS011;49531;-34.520;150.798;2023-06-22T12:47:44;3.20;;;2.17;;
63394;SDS011;49531;-34.520;150.798;2023-06-22T12:50:11;2.28;;;1.90;;
63394;SDS011;49531;-34.520;150.798;2023-06-22T12:52:39;2.85;;;2.10;;
63394;SDS011;49531;-34.520;150.798;2023-06-22T12:55:06;2.42;;;2.10;;
63394;SDS011;49531;-34.520;150.798;2023-06-22T12:57:34;3.15;;;1.95;;
63394;SDS011;49531;-34.520;150.798;2023-06-22T13:00:01;4.30;;;2.00;;
63394;SDS011;49531;-34.520;150.798;2023-06-22T13:02:30;2.08;;;1.88;;
63394;SDS011;49531;-34.520;150.798;2023-06-22T13:04:57;3.38;;;1.98;;
63394;SDS011;49531;-34.520;150.798;2023-06-22T13:07:24;3.58;;;1.88;;
63394;SDS011;49531;-34.520;150.798;2023-06-22T13:09:51;1.80;;;1.70;;
63394;SDS011;49531;-34.520;150.798;2023-06-22T13:12:19;3.92;;;1.90;;
63394;SDS011;49531;-34.520;150.798;2023-06-22T13:14:47;2.05;;;1.85;;
63394;SDS011;49531;-34.520;150.798;2023-06-22T13:17:15;3.65;;;1.90;;
63394;SDS011;49531;-34.520;150.798;2023-06-22T13:19:42;2.50;;;1.73;;
63394;SDS011;49531;-34.520;150.798;2023-06-22T13:24:55;2.92;;;1.70;;
63394;SDS011;49531;-34.520;150.798;2023-06-22T13:27:22;3.38;;;1.83;;
63394;SDS011;49531;-34.520;150.798;2023-06-22T13:29:50;2.28;;;1.90;;
63394;SDS011;49531;-34.520;150.798;2023-06-22T13:32:17;2.17;;;1.73;;
63394;SDS011;49531;-34.520;150.798;2023-06-22T13:34:44;2.70;;;1.70;;
63394;SDS011;49531;-34.520;150.798;2023-06-22T13:37:11;2.58;;;1.70;;
63394;SDS011;49531;-34.520;150.798;2023-06-22T13:39:39;2.35;;;1.70;;
63394;SDS011;49531;-34.520;150.798;2023-06-22T13:42:06;2.15;;;1.70;;
63394;SDS011;49531;-34.520;150.798;2023-06-22T13:44:33;3.35;;;1.80;;
63394;SDS011;49531;-34.520;150.798;2023-06-22T13:47:01;2.40;;;1.80;;
63394;SDS011;49531;-34.520;150.798;2023-06-22T13:49:28;2.05;;;1.75;;
63394;SDS011;49531;-34.520;150.798;2023-06-22T13:51:55;2.95;;;1.73;;
63394;SDS011;49531;-34.520;150.798;2023-06-22T13:54:23;2.20;;;1.88;;
63394;SDS011;49531;-34.520;150.798;2023-06-22T13:56:50;2.92;;;1.77;;
63394;SDS011;49531;-34.520;150.798;2023-06-22T13:59:17;2.25;;;1.90;;
63394;SDS011;49531;-34.520;150.798;2023-06-22T14:01:45;3.33;;;1.80;;
63394;SDS011;49531;-34.520;150.798;2023-06-22T14:04:13;2.55;;;1.80;;
63394;SDS011;49531;-34.520;150.798;2023-06-22T14:06:40;3.55;;;2.00;;
63394;SDS011;49531;-34.520;150.798;2023-06-22T14:09:07;2.80;;;1.80;;
63394;SDS011;49531;-34.520;150.798;2023-06-22T14:11:35;2.22;;;1.98;;
63394;SDS011;49531;-34.520;150.798;2023-06-22T14:14:02;2.75;;;1.88;;
63394;SDS011;49531;-34.520;150.798;2023-06-22T14:16:30;2.00;;;1.80;;
63394;SDS011;49531;-34.520;150.798;2023-06-22T14:18:58;2.85;;;1.73;;